createdAt,value
2022-08-02T00:01:41.677Z,97551.59
2022-08-02T00:04:43.644Z,97547.88
2022-08-02T00:07:45.186Z,97542.47
2022-08-02T00:10:46.662Z,97548.00
2022-08-02T00:13:48.162Z,97544.41
2022-08-02T00:16:49.689Z,97533.38
2022-08-02T00:19:51.233Z,97540.03
2022-08-02T00:22:52.752Z,97541.97
2022-08-02T00:25:55.694Z,97553.88
2022-08-02T00:28:57.667Z,97556.13
2022-08-02T00:31:59.266Z,97555.69
2022-08-02T00:35:00.737Z,97563.13
2022-08-02T00:38:05.058Z,97574.72
2022-08-02T00:41:13.133Z,97577.03
2022-08-02T00:44:19.866Z,97561.00
2022-08-02T00:47:21.321Z,97556.84
2022-08-02T00:50:22.924Z,97550.22
2022-08-02T00:53:24.506Z,97557.53
2022-08-02T00:56:26.079Z,97546.03
2022-08-02T00:59:27.566Z,97549.44
2022-08-02T01:02:29.065Z,97554.81
2022-08-02T01:05:30.617Z,97545.91
2022-08-02T01:08:32.099Z,97538.53
2022-08-02T01:11:34.930Z,97537.75
2022-08-02T01:14:37.463Z,97539.16
2022-08-02T01:17:39.006Z,97532.44
2022-08-02T01:20:59.032Z,97539.75
2022-08-02T01:24:24.335Z,97534.25
2022-08-02T01:27:59.682Z,97528.50
2022-08-02T01:31:10.678Z,97540.19
2022-08-02T01:34:20.776Z,97538.69
2022-08-02T01:37:28.407Z,97552.53
2022-08-02T01:40:34.136Z,97554.53
2022-08-02T01:43:38.020Z,97552.78
2022-08-02T01:46:42.042Z,97559.03
2022-08-02T01:49:48.004Z,97557.00
2022-08-02T01:52:53.573Z,97551.81
2022-08-02T01:55:59.067Z,97547.38
2022-08-02T01:59:01.807Z,97549.56
2022-08-02T02:02:09.529Z,97554.31
2022-08-02T02:05:16.675Z,97552.41
2022-08-02T02:08:27.266Z,97560.19
2022-08-02T02:12:06.315Z,97560.53
2022-08-02T02:14:53.313Z,97557.66
2022-08-02T02:18:12.712Z,97561.41
2022-08-02T02:21:15.534Z,97563.81
2022-08-02T02:24:17.061Z,97563.00
2022-08-02T02:27:20.230Z,97554.22
2022-08-02T02:30:24.566Z,97568.84
2022-08-02T02:33:29.430Z,97565.78
2022-08-02T02:36:34.678Z,97563.03
2022-08-02T02:39:38.701Z,97566.06
2022-08-02T02:42:42.287Z,97565.56
2022-08-02T02:45:51.802Z,97566.91
2022-08-02T02:48:54.548Z,97567.06
2022-08-02T02:51:57.702Z,97566.78
2022-08-02T02:55:01.449Z,97572.47
2022-08-02T02:58:03.336Z,97566.94
2022-08-02T03:01:55.884Z,97560.19
2022-08-02T03:04:56.661Z,97563.19
2022-08-02T03:07:59.451Z,97556.34
2022-08-02T03:11:01.298Z,97554.75
2022-08-02T03:14:10.161Z,97546.09
2022-08-02T03:17:11.684Z,97538.00
2022-08-02T03:20:16.022Z,97534.47
2022-08-02T03:23:17.467Z,97537.28
2022-08-02T03:26:18.945Z,97536.63
2022-08-02T03:29:20.401Z,97549.09
2022-08-02T03:32:21.915Z,97556.13
2022-08-02T03:35:24.491Z,97561.88
2022-08-02T03:38:28.956Z,97571.78
2022-08-02T03:41:31.371Z,97567.22
2022-08-02T03:44:33.730Z,97565.69
2022-08-02T03:47:39.108Z,97569.38
2022-08-02T03:50:42.096Z,97557.38
2022-08-02T03:53:44.515Z,97553.88
2022-08-02T03:56:46.418Z,97558.53
2022-08-02T03:59:47.895Z,97566.41
2022-08-02T04:02:49.911Z,97565.50
2022-08-02T04:05:59.449Z,97562.06
2022-08-02T04:09:06.213Z,97564.66
2022-08-02T04:12:08.024Z,97563.84
2022-08-02T04:15:12.351Z,97580.88
2022-08-02T04:18:14.636Z,97573.50
2022-08-02T04:21:19.207Z,97587.31
2022-08-02T04:24:32.093Z,97593.00
2022-08-02T04:27:50.072Z,97598.06
2022-08-02T04:30:52.909Z,97595.34
2022-08-02T04:33:55.397Z,97591.63
2022-08-02T04:36:58.768Z,97602.09
2022-08-02T04:40:00.599Z,97600.06
2022-08-02T04:43:02.082Z,97605.97
2022-08-02T04:46:04.069Z,97607.31
2022-08-02T04:49:06.542Z,97609.16
2022-08-02T04:52:08.344Z,97602.94
2022-08-02T04:55:10.264Z,97605.47
2022-08-02T04:58:37.374Z,97608.13
2022-08-02T05:01:33.403Z,97607.59
2022-08-02T05:04:34.870Z,97608.97
2022-08-02T05:07:36.313Z,97613.66
2022-08-02T05:10:38.488Z,97608.16
2022-08-02T05:13:58.993Z,97609.81
2022-08-02T05:17:00.951Z,97598.84
2022-08-02T05:20:02.418Z,97599.88
2022-08-02T05:23:03.977Z,97592.09
2022-08-02T05:26:05.444Z,97596.19
2022-08-02T05:29:06.933Z,97604.63
2022-08-02T05:32:08.591Z,97612.34
2022-08-02T05:35:10.446Z,97606.75
2022-08-02T05:38:11.925Z,97595.28
2022-08-02T05:41:13.446Z,97592.22
2022-08-02T05:44:15.182Z,97595.81
2022-08-02T05:47:16.908Z,97600.31
2022-08-02T05:50:18.820Z,97597.94
2022-08-02T05:53:46.176Z,97605.16
2022-08-02T05:57:01.220Z,97601.47
2022-08-02T06:00:09.301Z,97600.53
2022-08-02T06:03:26.485Z,97603.16
2022-08-02T06:06:30.198Z,97604.13
2022-08-02T06:09:33.100Z,97607.75
2022-08-02T06:12:46.170Z,97610.75
2022-08-02T06:15:52.924Z,97608.72
2022-08-02T06:18:55.407Z,97599.28
2022-08-02T06:22:31.755Z,97604.78
2022-08-02T06:25:48.097Z,97601.25
2022-08-02T06:28:41.102Z,97605.94
2022-08-02T06:31:45.199Z,97605.47
2022-08-02T06:34:47.063Z,97615.09
2022-08-02T06:37:58.795Z,97614.88
2022-08-02T06:41:05.214Z,97619.72
2022-08-02T06:44:27.743Z,97603.81
2022-08-02T06:47:28.235Z,97602.69
2022-08-02T06:50:30.477Z,97600.81
2022-08-02T06:53:32.486Z,97590.78
2022-08-02T06:56:33.946Z,97597.78
2022-08-02T06:59:35.431Z,97595.38
2022-08-02T07:02:37.051Z,97583.25
2022-08-02T07:05:38.929Z,97581.03
2022-08-02T07:08:40.693Z,97579.59
2022-08-02T07:11:42.135Z,97590.19
2022-08-02T07:14:43.641Z,97591.44
2022-08-02T07:17:45.173Z,97589.78
2022-08-02T07:20:47.003Z,97587.47
2022-08-02T07:23:48.528Z,97592.44
2022-08-02T07:27:10.620Z,97587.69
2022-08-02T07:30:12.009Z,97590.91
2022-08-02T07:33:37.470Z,97595.13
2022-08-02T07:36:35.854Z,97584.22
2022-08-02T07:39:37.302Z,97590.09
2022-08-02T07:42:47.286Z,97582.50
2022-08-02T07:45:55.828Z,97581.13
2022-08-02T07:49:02.351Z,97593.16
2022-08-02T07:52:04.535Z,97588.66
2022-08-02T07:55:06.637Z,97581.97
2022-08-02T07:58:13.233Z,97581.34
2022-08-02T08:01:15.332Z,97577.34
2022-08-02T08:04:17.265Z,97586.91
2022-08-02T08:07:18.789Z,97583.72
2022-08-02T08:10:20.275Z,97586.78
2022-08-02T08:13:22.199Z,97589.47
2022-08-02T08:16:26.110Z,97592.19
2022-08-02T08:19:50.540Z,97587.94
2022-08-02T08:22:50.058Z,97579.44
2022-08-02T08:25:51.608Z,97592.34
2022-08-02T08:28:53.093Z,97585.66
2022-08-02T08:31:54.566Z,97582.88
2022-08-02T08:34:56.082Z,97586.75
2022-08-02T08:37:57.551Z,97593.16
2022-08-02T08:40:59.154Z,97596.44
2022-08-02T08:44:01.934Z,97589.03
2022-08-02T08:47:05.058Z,97594.28
2022-08-02T08:50:22.868Z,97592.63
2022-08-02T08:53:36.889Z,97598.88
2022-08-02T08:56:39.618Z,97589.09
2022-08-02T08:59:41.119Z,97589.25
2022-08-02T09:02:43.937Z,97590.19
2022-08-02T09:05:46.991Z,97587.47
2022-08-02T09:08:48.834Z,97587.13
2022-08-02T09:11:51.412Z,97586.81
2022-08-02T09:14:52.896Z,97588.44
2022-08-02T09:17:54.394Z,97579.78
2022-08-02T09:21:01.701Z,97580.84
2022-08-02T09:24:24.044Z,97575.44
2022-08-02T09:27:25.636Z,97575.31
2022-08-02T09:30:27.263Z,97573.44
2022-08-02T09:33:28.999Z,97564.66
2022-08-02T09:36:41.958Z,97560.34
2022-08-02T09:39:46.607Z,97561.94
2022-08-02T09:42:59.322Z,97560.09
2022-08-02T09:46:13.211Z,97560.56
2022-08-02T09:49:16.715Z,97557.03
2022-08-02T09:52:37.182Z,97562.00
2022-08-02T09:55:56.018Z,97560.19
2022-08-02T09:58:57.632Z,97555.63
2022-08-02T10:02:02.496Z,97552.75
2022-08-02T10:05:06.717Z,97548.97
2022-08-02T10:08:08.534Z,97555.25
2022-08-02T10:11:10.042Z,97554.81
2022-08-02T10:14:12.054Z,97560.47
2022-08-02T10:17:15.374Z,97565.28
2022-08-02T10:20:17.067Z,97554.81
2022-08-02T10:23:21.543Z,97550.22
2022-08-02T10:26:23.989Z,97546.91
2022-08-02T10:29:50.484Z,97541.00
2022-08-02T10:32:59.403Z,97546.03
2022-08-02T10:36:04.445Z,97535.56
2022-08-02T10:39:10.080Z,97538.94
2022-08-02T10:42:13.465Z,97532.84
2022-08-02T10:45:17.869Z,97527.22
2022-08-02T10:48:19.368Z,97532.63
2022-08-02T10:51:24.459Z,97529.28
2022-08-02T10:54:42.926Z,97519.88
2022-08-02T10:57:48.717Z,97520.31
2022-08-02T11:00:51.792Z,97527.44
2022-08-02T11:03:59.409Z,97521.16
2022-08-02T11:07:19.135Z,97522.72
2022-08-02T11:10:26.756Z,97518.78
2022-08-02T11:13:30.044Z,97511.31
2022-08-02T11:16:49.937Z,97504.41
2022-08-02T11:20:13.426Z,97504.59
2022-08-02T11:23:44.662Z,97499.28
2022-08-02T11:26:47.012Z,97498.78
2022-08-02T11:29:51.366Z,97504.00
2022-08-02T11:32:57.638Z,97503.59
2022-08-02T11:36:07.213Z,97487.53
2022-08-02T11:39:13.710Z,97492.78
2022-08-02T11:42:17.498Z,97488.00
2022-08-02T11:45:29.413Z,97497.94
2022-08-02T11:48:37.798Z,97495.66
2022-08-02T11:51:39.872Z,97500.19
2022-08-02T11:54:44.306Z,97494.03
2022-08-02T11:58:04.770Z,97487.28
2022-08-02T12:01:07.621Z,97479.34
2022-08-02T12:04:10.425Z,97482.31
2022-08-02T12:07:11.971Z,97473.81
2022-08-02T12:10:19.636Z,97470.81
2022-08-02T12:13:21.186Z,97474.09
2022-08-02T12:16:45.768Z,97476.53
2022-08-02T12:19:48.062Z,97480.56
2022-08-02T12:22:49.605Z,97475.19
2022-08-02T12:26:16.161Z,97474.78
2022-08-02T12:29:58.025Z,97479.97
2022-08-02T12:32:52.278Z,97475.00
2022-08-02T12:35:54.135Z,97474.09
2022-08-02T12:38:57.844Z,97473.78
2022-08-02T12:41:59.314Z,97475.09
2022-08-02T12:45:00.831Z,97470.13
2022-08-02T12:48:02.451Z,97463.78
2022-08-02T12:51:51.006Z,97464.06
2022-08-02T12:54:50.796Z,97467.63
2022-08-02T12:57:59.622Z,97451.03
2022-08-02T13:01:01.786Z,97450.28
2022-08-02T13:04:09.810Z,97437.31
2022-08-02T13:07:14.787Z,97446.53
2022-08-02T13:10:17.049Z,97443.94
2022-08-02T13:13:19.063Z,97439.06
2022-08-02T13:16:30.891Z,97444.47
2022-08-02T13:19:33.036Z,97442.91
2022-08-02T13:22:36.067Z,97437.19
2022-08-02T13:25:41.258Z,97441.69
2022-08-02T13:28:42.787Z,97444.53
2022-08-02T13:31:44.277Z,97438.53
2022-08-02T13:34:46.418Z,97443.31
2022-08-02T13:37:48.105Z,97435.88
2022-08-02T13:41:07.874Z,97431.44
2022-08-02T13:44:10.912Z,97425.13
2022-08-02T13:47:12.845Z,97422.19
2022-08-02T13:50:14.461Z,97419.84
2022-08-02T13:53:15.984Z,97413.69
2022-08-02T13:56:17.714Z,97415.28
2022-08-02T13:59:21.963Z,97414.72
2022-08-02T14:02:40.771Z,97411.47
2022-08-02T14:05:47.225Z,97413.00
2022-08-02T14:08:50.145Z,97404.91
2022-08-02T14:11:51.878Z,97404.22
2022-08-02T14:14:53.378Z,97397.78
2022-08-02T14:17:54.849Z,97398.09
2022-08-02T14:20:56.369Z,97400.00
2022-08-02T14:23:57.822Z,97399.66
2022-08-02T14:26:59.366Z,97398.00
2022-08-02T14:30:01.541Z,97399.28
2022-08-02T14:33:03.950Z,97403.47
2022-08-02T14:36:08.607Z,97398.00
2022-08-02T14:39:10.442Z,97399.75
2022-08-02T14:42:12.246Z,97397.84
2022-08-02T14:45:14.067Z,97388.81
2022-08-02T14:48:15.611Z,97398.09
2022-08-02T14:51:17.088Z,97392.47
2022-08-02T14:54:18.558Z,97387.38
2022-08-02T14:57:20.443Z,97385.09
2022-08-02T15:00:22.070Z,97386.31
2022-08-02T15:03:23.621Z,97384.03
2022-08-02T15:06:28.120Z,97377.28
2022-08-02T15:09:29.604Z,97382.50
2022-08-02T15:12:31.063Z,97376.72
2022-08-02T15:15:32.512Z,97385.38
2022-08-02T15:18:44.906Z,97374.78
2022-08-02T15:21:52.625Z,97372.75
2022-08-02T15:24:57.163Z,97380.97
2022-08-02T15:27:58.682Z,97373.09
2022-08-02T15:31:00.142Z,97374.53
2022-08-02T15:34:02.564Z,97375.88
2022-08-02T15:37:04.281Z,97369.09
2022-08-02T15:40:06.496Z,97370.59
2022-08-02T15:43:08.762Z,97375.28
2022-08-02T15:46:10.354Z,97374.72
2022-08-02T15:49:11.916Z,97371.03
2022-08-02T15:52:14.366Z,97372.72
2022-08-02T15:55:16.298Z,97363.22
2022-08-02T15:58:17.970Z,97366.84
2022-08-02T16:01:24.215Z,97366.22
2022-08-02T16:04:25.771Z,97370.41
2022-08-02T16:07:27.301Z,97367.44
2022-08-02T16:10:29.196Z,97364.28
2022-08-02T16:13:53.841Z,97367.06
2022-08-02T16:16:58.557Z,97361.22
2022-08-02T16:20:00.088Z,97353.94
2022-08-02T16:23:04.509Z,97351.84
2022-08-02T16:26:06.772Z,97354.25
2022-08-02T16:29:08.872Z,97352.97
2022-08-02T16:32:11.529Z,97345.06
2022-08-02T16:35:13.157Z,97349.59
2022-08-02T16:38:14.710Z,97345.09
2022-08-02T16:41:16.474Z,97344.97
2022-08-02T16:44:18.486Z,97343.97
2022-08-02T16:47:42.676Z,97339.34
2022-08-02T16:50:46.355Z,97343.44
2022-08-02T16:54:00.190Z,97333.59
2022-08-02T16:57:04.840Z,97337.31
2022-08-02T17:00:08.478Z,97344.38
2022-08-02T17:03:13.440Z,97336.88
2022-08-02T17:06:16.087Z,97341.81
2022-08-02T17:10:03.548Z,97330.22
2022-08-02T17:12:40.444Z,97343.19
2022-08-02T17:19:04.058Z,97342.09
2022-08-02T17:22:05.566Z,97343.09
2022-08-02T17:25:11.165Z,97335.31
2022-08-02T17:28:12.723Z,97337.81
2022-08-02T17:31:14.208Z,97341.88
2022-08-02T17:34:17.967Z,97339.94
2022-08-02T17:37:21.216Z,97343.03
2022-08-02T17:40:23.766Z,97344.66
2022-08-02T17:43:25.936Z,97343.63
2022-08-02T17:46:31.180Z,97345.63
2022-08-02T17:49:32.914Z,97345.72
2022-08-02T17:52:51.198Z,97353.63
2022-08-02T17:55:56.222Z,97345.78
2022-08-02T17:59:22.427Z,97348.22
2022-08-02T18:02:32.759Z,97339.34
2022-08-02T18:05:40.123Z,97347.13
2022-08-02T18:08:54.499Z,97343.81
2022-08-02T18:11:57.983Z,97349.03
2022-08-02T18:14:59.607Z,97345.38
2022-08-02T18:18:03.075Z,97358.97
2022-08-02T18:21:16.245Z,97352.69
2022-08-02T18:24:24.232Z,97352.97
2022-08-02T18:27:25.819Z,97347.44
2022-08-02T18:30:28.401Z,97354.50
2022-08-02T18:33:54.529Z,97349.28
2022-08-02T18:36:52.094Z,97350.06
2022-08-02T18:39:53.578Z,97354.72
2022-08-02T18:42:57.470Z,97354.94
2022-08-02T18:46:06.578Z,97351.66
2022-08-02T18:49:16.902Z,97345.19
2022-08-02T18:52:31.164Z,97353.56
2022-08-02T18:55:59.749Z,97355.09
2022-08-02T18:58:56.014Z,97352.50
2022-08-02T19:01:57.685Z,97353.53
2022-08-02T19:05:00.484Z,97351.44
2022-08-02T19:08:02.703Z,97355.81
2022-08-02T19:11:04.702Z,97351.03
2022-08-02T19:14:06.577Z,97359.81
2022-08-02T19:17:15.779Z,97355.78
2022-08-02T19:20:19.364Z,97354.53
2022-08-02T19:23:22.113Z,97355.38
2022-08-02T19:26:23.653Z,97365.41
2022-08-02T19:29:42.883Z,97369.56
2022-08-02T19:32:58.698Z,97365.34
2022-08-02T19:36:04.441Z,97363.91
2022-08-02T19:39:06.178Z,97367.69
2022-08-02T19:42:07.948Z,97372.41
2022-08-02T19:45:13.073Z,97371.31
2022-08-02T19:48:15.682Z,97376.09
2022-08-02T19:51:55.237Z,97380.28
2022-08-02T19:54:55.203Z,97380.53
2022-08-02T19:57:58.286Z,97378.88
2022-08-02T20:01:00.449Z,97374.56
2022-08-02T20:04:02.945Z,97381.72
2022-08-02T20:07:05.358Z,97380.81
2022-08-02T20:10:10.882Z,97384.09
2022-08-02T20:13:13.726Z,97387.41
2022-08-02T20:16:20.959Z,97387.97
2022-08-02T20:19:29.793Z,97382.16
2022-08-02T20:22:31.668Z,97375.28
2022-08-02T20:25:33.166Z,97377.06
2022-08-02T20:28:36.657Z,97387.72
2022-08-02T20:31:38.624Z,97379.47
2022-08-02T20:34:40.312Z,97374.88
2022-08-02T20:37:56.289Z,97385.06
2022-08-02T20:41:03.930Z,97386.47
2022-08-02T20:44:05.414Z,97384.34
2022-08-02T20:47:19.234Z,97387.69
2022-08-02T20:50:49.405Z,97389.09
2022-08-02T20:53:56.450Z,97398.22
2022-08-02T20:56:58.073Z,97395.66
2022-08-02T21:00:04.005Z,97390.13
2022-08-02T21:03:07.124Z,97391.19
2022-08-02T21:06:09.967Z,97397.84
2022-08-02T21:09:11.528Z,97399.47
2022-08-02T21:12:14.643Z,97394.22
2022-08-02T21:15:16.593Z,97401.00
2022-08-02T21:18:24.454Z,97391.19
2022-08-02T21:21:42.165Z,97392.50
2022-08-02T21:24:43.850Z,97391.78
2022-08-02T21:27:53.003Z,97384.41
2022-08-02T21:30:56.971Z,97390.09
2022-08-02T21:33:59.419Z,97385.78
2022-08-02T21:37:09.979Z,97386.91
2022-08-02T21:40:13.003Z,97379.88
2022-08-02T21:43:14.543Z,97381.94
2022-08-02T21:46:17.235Z,97384.44
2022-08-02T21:49:40.472Z,97383.84
2022-08-02T21:52:52.141Z,97382.88
2022-08-02T21:56:01.108Z,97384.31
2022-08-02T21:59:15.782Z,97392.31
2022-08-02T22:02:19.601Z,97388.34
2022-08-02T22:05:37.330Z,97392.59
2022-08-02T22:08:39.450Z,97391.19
2022-08-02T22:11:41.035Z,97398.78
2022-08-02T22:14:42.616Z,97393.50
2022-08-02T22:17:50.534Z,97387.66
2022-08-02T22:20:55.883Z,97400.91
2022-08-02T22:23:58.122Z,97395.88
2022-08-02T22:27:00.510Z,97403.28
2022-08-02T22:30:04.691Z,97410.44
2022-08-02T22:33:31.357Z,97417.63
2022-08-02T22:36:38.563Z,97413.19
2022-08-02T22:40:06.105Z,97414.72
2022-08-02T22:43:01.838Z,97409.72
2022-08-02T22:46:03.504Z,97414.47
2022-08-02T22:49:05.119Z,97404.22
2022-08-02T22:52:08.419Z,97403.19
2022-08-02T22:55:12.354Z,97408.88
2022-08-02T22:58:15.592Z,97403.66
2022-08-02T22:58:50.850Z,97339.31
2022-08-02T23:01:21.190Z,97411.78
2022-08-02T23:04:22.782Z,97412.56
2022-08-02T23:07:24.393Z,97415.97
2022-08-02T23:10:26.150Z,97408.59
2022-08-02T23:13:28.432Z,97400.25
2022-08-02T23:16:48.603Z,97403.47
2022-08-02T23:19:52.923Z,97399.22
2022-08-02T23:22:55.674Z,97401.72
2022-08-02T23:25:57.425Z,97400.53
2022-08-02T23:28:59.240Z,97407.25
2022-08-02T23:32:03.056Z,97413.53
2022-08-02T23:35:05.347Z,97410.75
2022-08-02T23:38:07.723Z,97412.88
2022-08-02T23:41:10.298Z,97414.00
2022-08-02T23:44:13.925Z,97421.22
2022-08-02T23:47:16.849Z,97427.66
2022-08-02T23:50:19.618Z,97418.28
2022-08-02T23:53:21.140Z,97417.72
2022-08-02T23:56:22.682Z,97407.88
2022-08-02T23:59:25.059Z,97408.50
